Las Vegas, Nevada
Current Conditions -  °F | °C
As of 2:56 PM on Saturday 25 Oct 2014 (Local Time) from KLAS Reporting Station
Scattered Clouds Scattered Clouds  
Wind Chill: 87°   Ceiling: Unl
Heat Index: 87°   Visibility: 10mi
Dew Point: 41°   Wind: 18mph
Humidity: 20%   Direction: 210°SSW
Pressure: 29.92"   Gusts: 29mph
Location:  36.17°N, 115.13°W
Report Text: KLAS 252156Z 21016G25KT 10SM FEW100 FEW180 SCT250 31/05 A2992 RMK AO2 PK WND 18029/2119 SLP111 T03060050
Loading
Personal Weather Stations






























Interactive Weather Map New forecast layout! Learn more

10-Day Weather Forecast

Advertisements
Track Severe Weather on mobile